createdAt,value
2023-05-24T00:03:31.268Z,99.90
2023-05-24T00:08:33.282Z,99.90
2023-05-24T00:13:36.338Z,99.90
2023-05-24T00:18:38.089Z,99.90
2023-05-24T00:23:40.226Z,99.90
2023-05-24T00:28:43.366Z,99.90
2023-05-24T00:33:45.176Z,99.90
2023-05-24T00:38:46.844Z,99.90
2023-05-24T00:43:49.875Z,99.90
2023-05-24T00:48:52.754Z,99.90
2023-05-24T00:53:55.538Z,99.90
2023-05-24T00:58:58.585Z,99.90
2023-05-24T01:04:00.810Z,99.90
2023-05-24T01:09:25.669Z,99.90
2023-05-24T01:14:35.439Z,99.90
2023-05-24T01:19:49.125Z,99.90
2023-05-24T01:25:02.377Z,99.90
2023-05-24T01:30:07.801Z,99.90
2023-05-24T01:35:09.985Z,99.90
2023-05-24T01:40:12.843Z,99.90
2023-05-24T01:45:19.593Z,99.90
2023-05-24T01:50:26.486Z,99.90
2023-05-24T01:55:29.753Z,99.90
2023-05-24T02:00:33.884Z,99.90
2023-05-24T02:05:35.597Z,99.90
2023-05-24T02:10:37.669Z,99.90
2023-05-24T02:15:40.827Z,99.90
2023-05-24T02:20:42.691Z,99.90
2023-05-24T02:25:44.506Z,99.90
2023-05-24T02:30:47.660Z,99.90
2023-05-24T02:35:49.379Z,99.90
2023-05-24T02:40:53.302Z,99.90
2023-05-24T02:45:56.317Z,99.90
2023-05-24T02:50:58.046Z,99.90
2023-05-24T02:56:00.127Z,99.90
2023-05-24T03:01:03.252Z,99.90
2023-05-24T03:06:05.537Z,99.90
2023-05-24T03:11:07.472Z,99.90
2023-05-24T03:16:10.573Z,99.90
2023-05-24T03:21:12.368Z,99.90
2023-05-24T03:26:14.181Z,99.90
2023-05-24T03:31:17.371Z,99.90
2023-05-24T03:36:19.103Z,99.90
2023-05-24T03:41:20.836Z,99.90
2023-05-24T03:46:24.033Z,99.90
2023-05-24T03:51:25.892Z,99.90
2023-05-24T03:56:27.607Z,99.90
2023-05-24T04:01:33.839Z,99.90
2023-05-24T04:06:36.141Z,99.90
2023-05-24T04:11:37.914Z,99.90
2023-05-24T04:16:40.971Z,99.90
2023-05-24T04:21:42.685Z,99.90
2023-05-24T04:26:44.468Z,99.90
2023-05-24T04:31:47.712Z,99.90
2023-05-24T04:36:49.514Z,99.90
2023-05-24T04:41:53.738Z,99.90
2023-05-24T04:46:59.144Z,99.90
2023-05-24T04:52:01.045Z,99.90
2023-05-24T04:57:02.787Z,99.90
2023-05-24T05:02:05.922Z,99.90
2023-05-24T05:07:07.729Z,99.90
2023-05-24T05:12:09.429Z,99.90
2023-05-24T05:17:13.746Z,99.90
2023-05-24T05:22:15.563Z,99.90
2023-05-24T05:27:17.262Z,99.90
2023-05-24T05:32:20.374Z,99.90
2023-05-24T05:37:22.165Z,99.90
2023-05-24T05:42:24.009Z,99.90
2023-05-24T05:47:27.282Z,99.90
2023-05-24T05:52:29.077Z,99.90
2023-05-24T05:57:30.757Z,99.90
2023-05-24T06:02:33.906Z,99.90
2023-05-24T06:07:35.730Z,99.90
2023-05-24T06:12:37.436Z,99.90
2023-05-24T06:17:40.532Z,99.90
2023-05-24T06:22:42.246Z,99.90
2023-05-24T06:27:43.989Z,99.90
2023-05-24T06:32:47.294Z,99.90
2023-05-24T06:37:49.062Z,99.90
2023-05-24T06:42:50.783Z,99.90
2023-05-24T06:47:54.029Z,99.90
2023-05-24T06:52:55.850Z,99.90
2023-05-24T06:57:57.614Z,99.90
2023-05-24T07:03:00.989Z,99.90
2023-05-24T07:08:02.800Z,99.90
2023-05-24T07:13:04.541Z,99.90
2023-05-24T07:18:07.753Z,99.90
2023-05-24T07:23:09.713Z,99.90
2023-05-24T07:28:11.448Z,99.90
2023-05-24T07:33:14.598Z,99.90
2023-05-24T07:38:16.310Z,99.90
2023-05-24T07:43:18.069Z,99.90
2023-05-24T07:48:23.650Z,99.90
2023-05-24T07:53:25.334Z,99.90
2023-05-24T07:58:27.050Z,99.90
2023-05-24T08:03:30.232Z,99.90
2023-05-24T08:08:32.057Z,96.70
2023-05-24T08:13:33.917Z,98.20
2023-05-24T08:18:37.021Z,96.20
2023-05-24T08:23:38.831Z,95.50
2023-05-24T08:28:40.622Z,94.50
2023-05-24T08:33:43.874Z,93.40
2023-05-24T08:38:45.627Z,93.70
2023-05-24T08:43:47.822Z,92.30
2023-05-24T08:48:52.314Z,91.70
2023-05-24T08:53:54.828Z,91.90
2023-05-24T08:58:56.708Z,93.10
2023-05-24T09:04:00.519Z,94.10
2023-05-24T09:09:03.476Z,95.20
2023-05-24T09:14:05.253Z,94.60
2023-05-24T09:19:11.226Z,94.00
2023-05-24T09:24:13.290Z,92.10
2023-05-24T09:29:14.968Z,91.60
2023-05-24T09:34:18.009Z,87.40
2023-05-24T09:39:19.822Z,84.50
2023-05-24T09:44:24.837Z,88.70
2023-05-24T09:49:28.321Z,89.20
2023-05-24T09:54:32.086Z,84.00
2023-05-24T09:59:33.976Z,87.90
2023-05-24T10:04:37.195Z,84.60
2023-05-24T10:09:39.360Z,86.20
2023-05-24T10:14:41.656Z,80.00
2023-05-24T10:19:44.821Z,75.10
2023-05-24T10:24:49.381Z,77.30
2023-05-24T10:29:58.924Z,76.60
2023-05-24T10:35:04.203Z,82.20
2023-05-24T10:40:06.888Z,77.90
2023-05-24T10:45:37.290Z,75.70
2023-05-24T10:50:40.924Z,74.00
2023-05-24T10:55:55.987Z,75.90
2023-05-24T11:00:57.768Z,70.00
2023-05-24T11:06:00.894Z,80.90
2023-05-24T11:11:19.078Z,72.40
2023-05-24T11:16:36.265Z,74.10
2023-05-24T11:21:39.799Z,70.30
2023-05-24T11:26:54.139Z,68.40
2023-05-24T11:32:00.473Z,71.80
2023-05-24T11:37:03.851Z,72.10
2023-05-24T11:42:06.780Z,68.50
2023-05-24T11:47:08.814Z,67.00
2023-05-24T11:52:14.456Z,70.00
2023-05-24T11:57:35.975Z,66.30
2023-05-24T12:02:41.499Z,70.30
2023-05-24T12:08:00.159Z,68.90
2023-05-24T12:13:05.628Z,66.40
2023-05-24T12:18:21.472Z,65.80
2023-05-24T12:23:26.009Z,70.00
2023-05-24T12:28:33.037Z,66.70
2023-05-24T12:33:34.931Z,71.70
2023-05-24T12:38:38.668Z,69.10
2023-05-24T12:43:41.947Z,65.70
2023-05-24T12:48:43.880Z,66.10
2023-05-24T12:54:07.169Z,64.80
2023-05-24T12:59:11.446Z,66.70
2023-05-24T13:04:15.033Z,69.40
2023-05-24T13:09:18.603Z,73.30
2023-05-24T13:14:20.679Z,71.10
2023-05-24T13:19:24.602Z,71.70
2023-05-24T13:24:28.058Z,69.80
2023-05-24T13:29:39.576Z,71.80
2023-05-24T13:34:51.737Z,74.80
2023-05-24T13:39:55.098Z,71.90
2023-05-24T13:44:56.942Z,72.40
2023-05-24T13:49:58.712Z,70.70
2023-05-24T13:55:03.470Z,68.30
2023-05-24T14:00:06.411Z,73.10
2023-05-24T14:05:25.972Z,71.80
2023-05-24T14:10:31.008Z,71.70
2023-05-24T14:15:34.558Z,71.00
2023-05-24T14:20:37.269Z,70.50
2023-05-24T14:25:40.806Z,68.90
2023-05-24T14:30:42.669Z,67.60
2023-05-24T14:35:44.768Z,70.60
2023-05-24T14:40:49.612Z,66.50
2023-05-24T14:45:51.878Z,69.80
2023-05-24T14:50:53.933Z,67.70
2023-05-24T14:55:57.056Z,68.80
2023-05-24T15:00:58.933Z,68.70
2023-05-24T15:06:00.770Z,67.70
2023-05-24T15:11:04.098Z,65.70
2023-05-24T15:16:06.092Z,66.80
2023-05-24T15:21:07.824Z,68.90
2023-05-24T15:26:10.994Z,68.30
2023-05-24T15:31:17.801Z,62.40
2023-05-24T15:36:19.721Z,68.40
2023-05-24T15:41:22.904Z,66.50
2023-05-24T15:46:24.886Z,67.20
2023-05-24T15:56:40.916Z,66.70
2023-05-24T16:01:55.118Z,65.90
2023-05-24T16:07:02.323Z,68.70
2023-05-24T16:12:08.990Z,64.10
2023-05-24T16:17:11.043Z,67.60
2023-05-24T16:22:12.967Z,67.30
2023-05-24T16:27:17.293Z,68.00
2023-05-24T16:32:19.109Z,64.10
2023-05-24T16:37:20.994Z,64.00
2023-05-24T16:42:24.184Z,65.80
2023-05-24T16:47:28.755Z,66.70
2023-05-24T16:52:31.396Z,67.10
2023-05-24T16:57:34.989Z,66.50
2023-05-24T17:02:36.793Z,67.60
2023-05-24T17:07:38.591Z,68.20
2023-05-24T17:12:41.694Z,65.60
2023-05-24T17:17:46.680Z,69.80
2023-05-24T17:22:48.526Z,70.60
2023-05-24T17:27:51.739Z,70.70
2023-05-24T17:32:53.501Z,69.90
2023-05-24T17:37:57.210Z,70.90
2023-05-24T17:43:00.272Z,73.60
2023-05-24T17:48:02.401Z,72.00
2023-05-24T17:53:05.999Z,76.90
2023-05-24T17:58:11.971Z,77.40
2023-05-24T18:03:13.775Z,76.20
2023-05-24T18:08:15.566Z,75.00
2023-05-24T18:13:18.719Z,77.70
2023-05-24T18:18:20.544Z,78.40
2023-05-24T18:23:25.030Z,75.60
2023-05-24T18:28:30.525Z,75.10
2023-05-24T18:33:32.359Z,77.70
2023-05-24T18:38:34.370Z,78.70
2023-05-24T18:43:37.733Z,76.60
2023-05-24T18:48:40.060Z,76.00
2023-05-24T18:53:41.860Z,80.40
2023-05-24T18:58:45.368Z,81.50
2023-05-24T19:03:47.133Z,84.70
2023-05-24T19:08:49.044Z,86.20
2023-05-24T19:13:54.006Z,87.50
2023-05-24T19:18:55.793Z,88.20
2023-05-24T19:23:57.723Z,85.60
2023-05-24T19:29:01.025Z,87.70
2023-05-24T19:39:19.830Z,89.10
2023-05-24T19:44:23.071Z,88.90
2023-05-24T19:49:24.762Z,90.70
2023-05-24T19:54:26.501Z,91.70
2023-05-24T19:59:29.694Z,92.40
2023-05-24T20:04:31.426Z,93.90
2023-05-24T20:09:33.180Z,94.80
2023-05-24T20:14:36.416Z,94.60
2023-05-24T20:19:38.122Z,96.20
2023-05-24T20:24:39.869Z,96.70
2023-05-24T20:29:43.616Z,98.00
2023-05-24T20:34:45.352Z,99.30
2023-05-24T20:39:47.087Z,99.90
2023-05-24T20:44:50.113Z,99.90
2023-05-24T20:49:51.867Z,99.90
2023-05-24T20:54:53.672Z,99.90
2023-05-24T20:59:56.855Z,99.90
2023-05-24T21:04:58.609Z,99.90
2023-05-24T21:10:00.373Z,99.90
2023-05-24T21:15:03.869Z,99.90
2023-05-24T21:20:08.658Z,99.90
2023-05-24T21:25:10.438Z,99.90
2023-05-24T21:30:14.514Z,99.90
2023-05-24T21:35:16.345Z,99.90
2023-05-24T21:40:18.094Z,99.90
2023-05-24T21:45:21.190Z,99.90
2023-05-24T21:50:23.006Z,99.90
2023-05-24T21:55:24.779Z,99.90
2023-05-24T22:00:27.966Z,99.90
2023-05-24T22:05:29.768Z,99.90
2023-05-24T22:10:31.439Z,99.90
2023-05-24T22:15:34.629Z,99.90
2023-05-24T22:20:36.393Z,99.90
2023-05-24T22:25:38.180Z,99.90
2023-05-24T22:30:41.341Z,99.90
2023-05-24T22:35:43.205Z,99.90
2023-05-24T22:40:46.824Z,99.90
2023-05-24T22:45:50.153Z,99.90
2023-05-24T22:50:51.996Z,99.90
2023-05-24T22:55:53.915Z,99.90
2023-05-24T23:00:56.972Z,99.90
2023-05-24T23:05:58.688Z,99.90
2023-05-24T23:11:00.763Z,99.90
2023-05-24T23:16:04.118Z,99.90
2023-05-24T23:21:05.898Z,99.90
2023-05-24T23:26:07.697Z,99.90
2023-05-24T23:31:11.043Z,99.90
2023-05-24T23:36:12.820Z,99.90
2023-05-24T23:41:14.579Z,99.90
2023-05-24T23:46:17.911Z,99.90
2023-05-24T23:51:19.704Z,99.90
2023-05-24T23:56:21.446Z,99.90
